Hillham, Indiana
Current Conditions -  °F | °C
As of 4:55 PM on Thursday 27 Nov 2014 (Local Time) from KHNB Reporting Station
Overcast Overcast  
Wind Chill: 18°   Ceiling: 3300
Heat Index: 28°   Visibility: 9mi
Dew Point: 21°   Wind: 13mph
Humidity: 74%   Direction: 290°WNW
Pressure: 30.44"   Gusts: NA
Location:  38.4941°N, 86.6155°W
Report Text: KHNB 272155Z AUTO 29011KT 9SM SCT024 OVC033 M02/M06 A3044 RMK AO1
Loading
Personal Weather Stations






























Interactive Weather Map New forecast layout! Learn more

10-Day Weather Forecast

Advertisements
Track Severe Weather on mobile